createdAt,value
2023-03-13T00:00:13.289Z,1.50
2023-03-13T00:02:40.830Z,1.10
2023-03-13T00:05:08.738Z,1.50
2023-03-13T00:07:37.748Z,1.63
2023-03-13T00:10:05.886Z,1.23
2023-03-13T00:12:33.486Z,1.10
2023-03-13T00:15:01.052Z,1.45
2023-03-13T00:17:29.172Z,1.85
2023-03-13T00:19:56.816Z,1.35
2023-03-13T00:22:24.374Z,1.30
2023-03-13T00:24:53.348Z,1.60
2023-03-13T00:27:20.927Z,1.17
2023-03-13T00:29:49.139Z,1.13
2023-03-13T00:32:16.768Z,1.88
2023-03-13T00:34:44.388Z,1.52
2023-03-13T00:37:11.962Z,1.10
2023-03-13T00:39:39.679Z,1.00
2023-03-13T00:42:08.747Z,1.50
2023-03-13T00:44:36.338Z,1.23
2023-03-13T00:47:05.289Z,1.35
2023-03-13T00:49:32.866Z,1.17
2023-03-13T00:52:00.769Z,1.73
2023-03-13T00:54:28.367Z,1.17
2023-03-13T00:56:55.954Z,1.38
2023-03-13T00:59:24.985Z,1.45
2023-03-13T01:01:52.548Z,1.35
2023-03-13T01:04:21.641Z,1.13
2023-03-13T01:06:51.093Z,1.45
2023-03-13T01:09:18.699Z,1.10
2023-03-13T01:11:46.921Z,1.50
2023-03-13T01:14:15.381Z,1.27
2023-03-13T01:16:44.335Z,1.13
2023-03-13T01:19:13.494Z,1.23
2023-03-13T01:21:41.762Z,1.17
2023-03-13T01:24:09.440Z,0.88
2023-03-13T01:26:37.027Z,1.30
2023-03-13T01:29:04.793Z,1.15
2023-03-13T01:31:33.410Z,1.30
2023-03-13T01:34:03.247Z,1.30
2023-03-13T01:36:32.000Z,1.58
2023-03-13T01:39:00.665Z,1.00
2023-03-13T01:41:29.746Z,1.10
2023-03-13T01:43:57.612Z,0.90
2023-03-13T01:46:30.366Z,0.70
2023-03-13T01:49:19.205Z,1.10
2023-03-13T01:52:17.219Z,0.90
2023-03-13T01:54:52.816Z,0.93
2023-03-13T01:57:25.579Z,1.33
2023-03-13T01:59:54.710Z,1.15
2023-03-13T02:02:23.514Z,0.73
2023-03-13T02:04:55.222Z,0.98
2023-03-13T02:07:24.679Z,1.30
2023-03-13T02:09:54.392Z,1.40
2023-03-13T02:12:25.310Z,0.73
2023-03-13T02:14:53.905Z,0.90
2023-03-13T02:17:21.952Z,0.98
2023-03-13T02:19:51.840Z,0.57
2023-03-13T02:22:24.392Z,0.73
2023-03-13T02:24:54.766Z,1.33
2023-03-13T02:27:23.845Z,1.27
2023-03-13T02:29:52.380Z,0.90
2023-03-13T02:32:20.383Z,0.55
2023-03-13T02:34:49.537Z,0.85
2023-03-13T02:37:17.383Z,1.20
2023-03-13T02:39:47.358Z,0.82
2023-03-13T02:42:16.690Z,1.00
2023-03-13T02:44:47.009Z,0.90
2023-03-13T02:47:18.614Z,0.60
2023-03-13T02:49:46.433Z,0.70
2023-03-13T02:52:17.376Z,0.77
2023-03-13T02:54:46.693Z,0.82
2023-03-13T02:57:14.569Z,0.70
2023-03-13T02:59:42.160Z,0.80
2023-03-13T03:02:11.309Z,0.88
2023-03-13T03:04:38.862Z,0.80
2023-03-13T03:07:06.493Z,0.77
2023-03-13T03:09:34.314Z,1.00
2023-03-13T03:12:07.032Z,0.90
2023-03-13T03:14:34.671Z,0.90
2023-03-13T03:17:02.588Z,1.00
2023-03-13T03:19:31.481Z,0.80
2023-03-13T03:21:59.254Z,0.82
2023-03-13T03:24:26.860Z,0.80
2023-03-13T03:26:54.441Z,1.17
2023-03-13T03:29:27.723Z,0.98
2023-03-13T03:31:56.599Z,1.05
2023-03-13T03:34:24.523Z,0.73
2023-03-13T03:36:54.310Z,0.90
2023-03-13T03:39:21.848Z,0.70
2023-03-13T03:41:49.920Z,0.68
2023-03-13T03:44:17.505Z,0.63
2023-03-13T03:46:53.691Z,0.60
2023-03-13T03:49:22.647Z,0.68
2023-03-13T03:51:50.620Z,0.75
2023-03-13T03:54:24.777Z,0.70
2023-03-13T03:56:52.446Z,0.70
2023-03-13T03:59:20.347Z,0.82
2023-03-13T04:01:49.089Z,1.02
2023-03-13T04:04:21.913Z,1.20
2023-03-13T04:06:54.002Z,0.70
2023-03-13T04:09:21.879Z,0.77
2023-03-13T04:11:50.843Z,0.90
2023-03-13T04:14:18.513Z,0.93
2023-03-13T04:16:46.575Z,0.70
2023-03-13T04:19:15.999Z,0.73
2023-03-13T04:21:44.479Z,0.98
2023-03-13T04:24:19.936Z,0.90
2023-03-13T04:26:47.519Z,0.70
2023-03-13T04:29:17.346Z,0.90
2023-03-13T04:31:53.663Z,0.80
2023-03-13T04:34:44.391Z,0.50
2023-03-13T04:37:19.394Z,0.73
2023-03-13T04:40:05.908Z,0.93
2023-03-13T04:42:45.297Z,1.10
2023-03-13T04:45:25.570Z,0.50
2023-03-13T04:48:20.838Z,0.63
2023-03-13T04:51:14.171Z,0.60
2023-03-13T04:54:09.561Z,0.88
2023-03-13T04:56:57.385Z,0.73
2023-03-13T04:59:37.274Z,0.60
2023-03-13T05:02:41.600Z,0.88
2023-03-13T05:05:21.357Z,1.00
2023-03-13T05:08:01.474Z,0.80
2023-03-13T05:10:51.869Z,0.77
2023-03-13T05:13:33.861Z,0.80
2023-03-13T05:16:24.850Z,0.73
2023-03-13T05:19:26.467Z,0.63
2023-03-13T05:21:59.876Z,0.80
2023-03-13T05:25:06.344Z,0.65
2023-03-13T05:27:53.336Z,0.90
2023-03-13T05:30:47.299Z,0.65
2023-03-13T05:33:38.753Z,0.70
2023-03-13T05:36:34.001Z,1.15
2023-03-13T05:39:31.034Z,0.90
2023-03-13T05:42:37.042Z,0.70
2023-03-13T05:45:18.322Z,0.73
2023-03-13T05:48:12.160Z,0.60
2023-03-13T05:50:58.125Z,0.80
2023-03-13T05:53:49.130Z,0.93
2023-03-13T05:56:39.763Z,0.88
2023-03-13T05:59:24.934Z,0.70
2023-03-13T06:02:10.844Z,1.13
2023-03-13T06:04:43.149Z,0.82
2023-03-13T06:07:11.142Z,0.93
2023-03-13T06:09:40.969Z,0.77
2023-03-13T06:12:09.900Z,0.73
2023-03-13T06:14:37.896Z,0.80
2023-03-13T06:17:30.532Z,1.05
2023-03-13T06:19:58.089Z,0.90
2023-03-13T06:22:25.720Z,0.70
2023-03-13T06:24:54.653Z,1.60
2023-03-13T06:27:22.214Z,1.80
2023-03-13T06:29:49.792Z,1.67
2023-03-13T06:32:17.477Z,1.70
2023-03-13T06:34:45.197Z,1.52
2023-03-13T06:37:12.839Z,1.95
2023-03-13T06:39:40.440Z,1.90
2023-03-13T06:42:09.456Z,1.95
2023-03-13T06:44:37.071Z,2.05
2023-03-13T06:47:04.802Z,2.33
2023-03-13T06:49:32.467Z,2.22
2023-03-13T06:52:00.038Z,2.10
2023-03-13T06:54:27.852Z,1.90
2023-03-13T06:56:55.460Z,1.70
2023-03-13T06:59:24.415Z,2.17
2023-03-13T07:01:52.047Z,2.00
2023-03-13T07:04:20.101Z,1.90
2023-03-13T07:06:47.809Z,1.70
2023-03-13T07:09:15.390Z,2.33
2023-03-13T07:11:42.973Z,2.00
2023-03-13T07:14:16.960Z,2.17
2023-03-13T07:16:46.533Z,1.98
2023-03-13T07:19:15.140Z,1.83
2023-03-13T07:21:42.969Z,1.77
2023-03-13T07:24:10.623Z,2.03
2023-03-13T07:26:38.792Z,2.05
2023-03-13T07:29:06.548Z,1.92
2023-03-13T07:31:35.204Z,1.90
2023-03-13T07:34:04.228Z,1.95
2023-03-13T07:36:31.849Z,1.80
2023-03-13T07:38:59.449Z,1.77
2023-03-13T07:41:27.122Z,1.85
2023-03-13T07:43:54.726Z,1.73
2023-03-13T07:46:22.671Z,1.80
2023-03-13T07:48:50.731Z,1.98
2023-03-13T07:51:27.560Z,1.73
2023-03-13T07:54:01.184Z,1.67
2023-03-13T07:56:28.821Z,1.52
2023-03-13T07:58:56.367Z,1.95
2023-03-13T08:01:26.843Z,1.80
2023-03-13T08:03:55.904Z,1.98
2023-03-13T08:06:25.627Z,1.88
2023-03-13T08:08:53.642Z,1.85
2023-03-13T08:11:22.187Z,1.63
2023-03-13T08:13:50.526Z,1.48
2023-03-13T08:16:19.163Z,1.90
2023-03-13T08:18:47.757Z,1.88
2023-03-13T08:21:16.859Z,1.63
2023-03-13T08:23:45.835Z,1.38
2023-03-13T08:26:14.563Z,1.10
2023-03-13T08:28:42.557Z,0.93
2023-03-13T08:31:10.992Z,1.42
2023-03-13T08:33:39.038Z,0.90
2023-03-13T08:36:10.326Z,1.30
2023-03-13T08:38:38.175Z,1.33
2023-03-13T08:41:07.150Z,1.38
2023-03-13T08:43:34.763Z,1.05
2023-03-13T08:46:02.495Z,1.23
2023-03-13T08:48:30.131Z,1.45
2023-03-13T08:51:01.817Z,1.75
2023-03-13T08:53:29.698Z,1.40
2023-03-13T08:55:57.318Z,1.08
2023-03-13T08:58:26.419Z,1.20
2023-03-13T09:00:54.056Z,1.00
2023-03-13T09:03:21.797Z,1.27
2023-03-13T09:05:55.904Z,0.70
2023-03-13T09:08:24.048Z,1.10
2023-03-13T09:10:56.038Z,1.10
2023-03-13T09:13:23.642Z,0.85
2023-03-13T09:15:56.560Z,1.20
2023-03-13T09:18:24.572Z,0.90
2023-03-13T09:20:52.199Z,1.00
2023-03-13T09:23:20.298Z,1.30
2023-03-13T09:25:47.898Z,1.40
2023-03-13T09:28:15.506Z,1.08
2023-03-13T09:30:43.146Z,1.35
2023-03-13T09:33:12.141Z,1.00
2023-03-13T09:35:39.809Z,0.90
2023-03-13T09:38:07.497Z,1.30
2023-03-13T09:40:38.421Z,1.20
2023-03-13T09:43:06.012Z,1.00
2023-03-13T09:45:35.653Z,1.23
2023-03-13T09:48:06.877Z,0.93
2023-03-13T09:50:37.312Z,0.90
2023-03-13T09:53:06.358Z,1.33
2023-03-13T09:55:35.499Z,1.30
2023-03-13T09:58:05.346Z,0.93
2023-03-13T10:00:35.460Z,1.05
2023-03-13T10:03:06.700Z,1.15
2023-03-13T10:05:34.700Z,1.20
2023-03-13T10:08:11.943Z,1.13
2023-03-13T10:10:44.603Z,1.10
2023-03-13T10:13:16.479Z,0.70
2023-03-13T10:15:46.108Z,0.82
2023-03-13T10:18:16.841Z,0.70
2023-03-13T10:20:46.720Z,0.88
2023-03-13T10:23:17.436Z,0.70
2023-03-13T10:25:44.999Z,1.02
2023-03-13T10:28:13.253Z,1.33
2023-03-13T10:30:44.446Z,0.95
2023-03-13T10:33:23.007Z,1.00
2023-03-13T10:36:01.122Z,1.00
2023-03-13T10:38:30.529Z,0.98
2023-03-13T10:40:58.574Z,0.80
2023-03-13T10:43:27.060Z,1.00
2023-03-13T10:45:54.653Z,0.60
2023-03-13T10:48:23.480Z,0.95
2023-03-13T10:50:52.244Z,0.73
2023-03-13T10:53:24.706Z,1.05
2023-03-13T10:55:55.786Z,0.95
2023-03-13T10:58:25.256Z,0.80
2023-03-13T11:00:52.838Z,0.82
2023-03-13T11:03:24.110Z,0.98
2023-03-13T11:05:56.400Z,1.10
2023-03-13T11:08:24.950Z,0.75
2023-03-13T11:10:58.672Z,0.70
2023-03-13T11:13:36.846Z,0.88
2023-03-13T11:16:22.826Z,0.77
2023-03-13T11:19:15.641Z,0.90
2023-03-13T11:21:48.591Z,1.00
2023-03-13T11:24:19.630Z,0.90
2023-03-13T11:27:04.132Z,0.90
2023-03-13T11:29:35.496Z,0.85
2023-03-13T11:32:07.898Z,0.80
2023-03-13T11:34:38.027Z,0.80
2023-03-13T11:37:10.471Z,0.60
2023-03-13T11:39:59.118Z,0.80
2023-03-13T11:42:37.200Z,0.82
2023-03-13T11:45:08.334Z,0.70
2023-03-13T11:47:47.013Z,0.70
2023-03-13T11:50:27.302Z,0.80
2023-03-13T11:53:04.767Z,0.73
2023-03-13T11:55:39.162Z,0.88
2023-03-13T11:58:18.309Z,0.80
2023-03-13T12:00:48.469Z,0.90
2023-03-13T12:03:18.385Z,0.75
2023-03-13T12:05:48.581Z,0.80
2023-03-13T12:08:19.194Z,0.93
2023-03-13T12:10:48.466Z,0.82
2023-03-13T12:13:21.033Z,0.55
2023-03-13T12:15:50.457Z,0.60
2023-03-13T12:18:20.761Z,0.52
2023-03-13T12:20:53.367Z,0.82
2023-03-13T12:23:21.619Z,0.90
2023-03-13T12:25:52.446Z,0.90
2023-03-13T12:28:24.914Z,1.00
2023-03-13T12:30:57.455Z,0.73
2023-03-13T12:33:26.829Z,0.82
2023-03-13T12:35:59.394Z,0.50
2023-03-13T12:38:29.354Z,0.80
2023-03-13T12:41:02.712Z,0.70
2023-03-13T12:43:32.448Z,0.75
2023-03-13T12:46:11.987Z,0.80
2023-03-13T12:48:48.632Z,0.80
2023-03-13T12:51:23.147Z,0.70
2023-03-13T12:54:03.485Z,0.90
2023-03-13T12:56:37.908Z,0.50
2023-03-13T12:59:09.304Z,1.02
2023-03-13T13:01:39.069Z,0.80
2023-03-13T13:04:08.119Z,0.60
2023-03-13T13:06:52.272Z,1.20
2023-03-13T13:09:21.873Z,0.70
2023-03-13T13:11:49.982Z,0.63
2023-03-13T13:14:37.063Z,0.70
2023-03-13T13:17:16.902Z,0.63
2023-03-13T13:19:45.704Z,0.50
2023-03-13T13:22:33.432Z,0.65
2023-03-13T13:25:01.799Z,0.75
2023-03-13T13:27:40.641Z,0.50
2023-03-13T13:30:29.711Z,1.05
2023-03-13T13:33:18.626Z,0.60
2023-03-13T13:35:46.604Z,0.50
2023-03-13T13:38:36.509Z,0.80
2023-03-13T13:41:06.113Z,0.70
2023-03-13T13:43:34.812Z,0.60
2023-03-13T13:46:05.929Z,0.75
2023-03-13T13:48:37.834Z,0.60
2023-03-13T13:51:23.816Z,0.77
2023-03-13T13:53:54.190Z,0.50
2023-03-13T13:56:36.559Z,0.80
2023-03-13T13:59:06.727Z,0.68
2023-03-13T14:01:34.670Z,0.65
2023-03-13T14:04:11.818Z,0.70
2023-03-13T14:06:39.583Z,0.45
2023-03-13T14:09:15.519Z,0.60
2023-03-13T14:11:43.082Z,0.57
2023-03-13T14:14:11.537Z,0.50
2023-03-13T14:16:39.598Z,0.70
2023-03-13T14:19:21.628Z,0.60
2023-03-13T14:21:49.295Z,1.08
2023-03-13T14:24:17.563Z,0.70
2023-03-13T14:26:45.362Z,0.85
2023-03-13T14:29:17.179Z,0.57
2023-03-13T14:31:51.789Z,0.90
2023-03-13T14:34:20.849Z,0.50
2023-03-13T14:36:48.705Z,0.70
2023-03-13T14:39:19.055Z,0.93
2023-03-13T14:41:48.012Z,0.70
2023-03-13T14:44:17.294Z,0.60
2023-03-13T14:46:45.257Z,0.55
2023-03-13T14:49:17.576Z,0.90
2023-03-13T14:51:46.813Z,0.68
2023-03-13T14:54:25.753Z,0.30
2023-03-13T14:57:03.467Z,0.75
2023-03-13T14:59:31.186Z,0.93
2023-03-13T15:02:00.601Z,0.88
2023-03-13T15:04:46.730Z,0.65
2023-03-13T15:07:15.671Z,1.00
2023-03-13T15:09:43.712Z,0.90
2023-03-13T15:12:14.609Z,0.90
2023-03-13T15:14:45.404Z,0.50
2023-03-13T15:17:15.066Z,0.50
2023-03-13T15:19:42.664Z,0.80
2023-03-13T15:22:13.242Z,0.52
2023-03-13T15:24:42.248Z,0.50
2023-03-13T15:27:19.526Z,0.93
2023-03-13T15:29:47.554Z,0.60
2023-03-13T15:32:17.996Z,0.73
2023-03-13T15:34:45.591Z,0.50
2023-03-13T15:37:13.450Z,0.60
2023-03-13T15:39:42.611Z,0.68
2023-03-13T15:42:10.204Z,0.88
2023-03-13T15:44:37.791Z,0.65
2023-03-13T15:47:05.431Z,0.70
2023-03-13T15:49:33.036Z,0.65
2023-03-13T15:52:00.607Z,0.70
2023-03-13T15:54:28.149Z,0.60
2023-03-13T15:56:57.107Z,0.68
2023-03-13T15:59:24.676Z,0.70
2023-03-13T16:01:52.250Z,0.95
2023-03-13T16:04:19.944Z,0.70
2023-03-13T16:06:47.541Z,0.55
2023-03-13T16:09:17.401Z,0.90
2023-03-13T16:11:45.805Z,0.60
2023-03-13T16:14:14.739Z,0.85
2023-03-13T16:16:42.689Z,0.75
2023-03-13T16:19:10.432Z,0.90
2023-03-13T16:21:40.332Z,0.88
2023-03-13T16:24:08.022Z,0.57
2023-03-13T16:26:35.580Z,0.80
2023-03-13T16:29:03.469Z,0.60
2023-03-13T16:31:33.329Z,0.60
2023-03-13T16:34:01.110Z,0.63
2023-03-13T16:36:31.259Z,0.88
2023-03-13T16:38:59.555Z,0.90
2023-03-13T16:41:28.645Z,0.40
2023-03-13T16:43:56.455Z,0.70
2023-03-13T16:46:25.690Z,0.65
2023-03-13T16:48:57.037Z,0.65
2023-03-13T16:51:25.431Z,0.80
2023-03-13T16:53:54.281Z,0.70
2023-03-13T16:56:24.299Z,0.80
2023-03-13T16:58:51.906Z,0.70
2023-03-13T17:01:19.467Z,1.23
2023-03-13T17:03:47.008Z,0.80
2023-03-13T17:06:17.312Z,1.30
2023-03-13T17:08:45.037Z,0.85
2023-03-13T17:11:15.987Z,0.80
2023-03-13T17:13:45.875Z,0.77
2023-03-13T17:16:15.385Z,0.93
2023-03-13T17:18:43.591Z,0.50
2023-03-13T17:21:15.302Z,0.75
2023-03-13T17:23:44.450Z,0.63
2023-03-13T17:26:16.622Z,1.00
2023-03-13T17:28:44.591Z,1.55
2023-03-13T17:31:12.430Z,0.90
2023-03-13T17:33:40.800Z,1.02
2023-03-13T17:36:15.222Z,0.90
2023-03-13T17:38:44.639Z,0.90
2023-03-13T17:41:13.110Z,0.70
2023-03-13T17:43:40.851Z,1.08
2023-03-13T17:46:19.503Z,0.60
2023-03-13T17:48:48.075Z,1.42
2023-03-13T17:51:17.033Z,1.13
2023-03-13T17:53:46.132Z,0.80
2023-03-13T17:56:14.913Z,0.63
2023-03-13T17:58:42.522Z,1.02
2023-03-13T18:01:10.948Z,0.98
2023-03-13T18:03:38.533Z,0.73
2023-03-13T18:06:06.392Z,1.33
2023-03-13T18:08:33.978Z,0.73
2023-03-13T18:11:02.907Z,0.90
2023-03-13T18:13:30.491Z,1.00
2023-03-13T18:15:58.128Z,1.15
2023-03-13T18:18:25.837Z,1.15
2023-03-13T18:20:54.555Z,0.73
2023-03-13T18:23:22.166Z,1.45
2023-03-13T18:25:49.765Z,0.85
2023-03-13T18:28:18.914Z,1.05
2023-03-13T18:30:46.496Z,1.13
2023-03-13T18:33:14.058Z,1.05
2023-03-13T18:35:41.672Z,1.48
2023-03-13T18:38:13.746Z,1.00
2023-03-13T18:40:41.311Z,1.38
2023-03-13T18:43:08.877Z,1.33
2023-03-13T18:45:38.812Z,0.93
2023-03-13T18:48:10.502Z,1.15
2023-03-13T18:50:38.132Z,1.50
2023-03-13T18:53:05.743Z,1.60
2023-03-13T18:55:33.346Z,1.50
2023-03-13T18:58:00.908Z,0.73
2023-03-13T19:00:30.088Z,1.10
2023-03-13T19:02:59.002Z,0.95
2023-03-13T19:05:26.748Z,0.85
2023-03-13T19:07:54.308Z,1.67
2023-03-13T19:10:24.037Z,1.20
2023-03-13T19:12:52.202Z,0.88
2023-03-13T19:15:21.332Z,0.95
2023-03-13T19:17:48.875Z,0.65
2023-03-13T19:20:18.884Z,0.70
2023-03-13T19:22:46.679Z,1.10
2023-03-13T19:25:16.808Z,1.35
2023-03-13T19:27:44.524Z,1.00
2023-03-13T19:30:15.798Z,0.57
2023-03-13T19:32:43.433Z,1.17
2023-03-13T19:35:12.271Z,0.52
2023-03-13T19:37:41.295Z,0.77
2023-03-13T19:40:16.002Z,0.90
2023-03-13T19:42:43.573Z,0.75
2023-03-13T19:45:11.847Z,1.00
2023-03-13T19:47:39.439Z,1.08
2023-03-13T19:50:07.687Z,0.85
2023-03-13T19:52:35.262Z,1.08
2023-03-13T19:55:05.340Z,1.08
2023-03-13T19:57:33.159Z,0.77
2023-03-13T20:00:00.747Z,1.50
2023-03-13T20:02:28.328Z,1.20
2023-03-13T20:04:56.035Z,1.75
2023-03-13T20:07:23.570Z,1.00
2023-03-13T20:09:51.111Z,1.40
2023-03-13T20:12:20.421Z,1.58
2023-03-13T20:14:48.052Z,1.00
2023-03-13T20:17:15.616Z,1.30
2023-03-13T20:19:43.362Z,1.15
2023-03-13T20:22:10.972Z,1.80
2023-03-13T20:24:38.789Z,1.30
2023-03-13T20:27:06.391Z,1.13
2023-03-13T20:29:35.354Z,1.45
2023-03-13T20:32:05.663Z,1.50
2023-03-13T20:34:33.232Z,1.17
2023-03-13T20:37:00.839Z,1.17
2023-03-13T20:39:29.514Z,1.50
2023-03-13T20:41:57.392Z,1.67
2023-03-13T20:44:24.966Z,1.63
2023-03-13T20:46:53.932Z,1.23
2023-03-13T20:49:21.610Z,1.35
2023-03-13T20:51:49.335Z,1.10
2023-03-13T20:54:16.939Z,1.05
2023-03-13T20:56:44.523Z,0.98
2023-03-13T20:59:12.093Z,0.82
2023-03-13T21:01:39.724Z,1.08
2023-03-13T21:04:08.681Z,0.85
2023-03-13T21:06:36.253Z,0.98
2023-03-13T21:09:05.296Z,1.00
2023-03-13T21:11:33.712Z,1.05
2023-03-13T21:14:01.339Z,1.15
2023-03-13T21:16:28.985Z,0.77
2023-03-13T21:18:56.602Z,1.10
2023-03-13T21:21:25.564Z,0.80
2023-03-13T21:23:53.212Z,1.33
2023-03-13T21:26:20.875Z,1.23
2023-03-13T21:28:48.696Z,0.80
2023-03-13T21:31:17.430Z,1.70
2023-03-13T21:33:45.815Z,0.88
2023-03-13T21:36:13.982Z,0.88
2023-03-13T21:38:42.932Z,1.63
2023-03-13T21:41:11.051Z,0.90
2023-03-13T21:43:41.373Z,0.88
2023-03-13T21:46:09.037Z,1.40
2023-03-13T21:48:38.065Z,1.00
2023-03-13T21:51:06.675Z,0.80
2023-03-13T21:53:34.473Z,0.80
2023-03-13T21:56:03.868Z,1.23
2023-03-13T21:58:31.542Z,0.70
2023-03-13T22:00:59.740Z,0.77
2023-03-13T22:03:27.513Z,1.00
2023-03-13T22:05:55.443Z,0.70
2023-03-13T22:08:23.031Z,1.23
2023-03-13T22:10:51.420Z,0.60
2023-03-13T22:13:20.339Z,0.93
2023-03-13T22:15:47.842Z,0.77
2023-03-13T22:18:15.716Z,0.98
2023-03-13T22:20:43.583Z,0.95
2023-03-13T22:23:11.247Z,1.33
2023-03-13T22:25:39.214Z,1.23
2023-03-13T22:28:06.905Z,0.90
2023-03-13T22:30:35.862Z,0.77
2023-03-13T22:33:03.970Z,0.98
2023-03-13T22:35:31.558Z,0.93
2023-03-13T22:37:59.119Z,1.08
2023-03-13T22:40:26.699Z,1.00
2023-03-13T22:42:54.227Z,0.93
2023-03-13T22:45:22.391Z,0.93
2023-03-13T22:47:51.343Z,0.80
2023-03-13T22:50:19.675Z,0.93
2023-03-13T22:52:47.512Z,1.50
2023-03-13T22:55:15.090Z,1.10
2023-03-13T22:57:42.654Z,0.85
2023-03-13T23:00:10.774Z,0.98
2023-03-13T23:02:38.359Z,0.60
2023-03-13T23:05:07.616Z,0.70
2023-03-13T23:07:38.587Z,0.70
2023-03-13T23:10:06.953Z,0.73
2023-03-13T23:12:34.981Z,1.00
2023-03-13T23:15:02.612Z,1.10
2023-03-13T23:17:31.497Z,0.80
2023-03-13T23:20:01.082Z,1.13
2023-03-13T23:22:32.757Z,1.17
2023-03-13T23:25:00.379Z,1.15
2023-03-13T23:27:28.073Z,1.05
2023-03-13T23:29:55.625Z,0.75
2023-03-13T23:32:23.603Z,0.73
2023-03-13T23:34:51.219Z,0.93
2023-03-13T23:37:18.831Z,0.75
2023-03-13T23:39:47.746Z,0.38
2023-03-13T23:42:15.367Z,0.80
2023-03-13T23:44:42.944Z,0.40
2023-03-13T23:47:10.520Z,0.77
2023-03-13T23:49:38.095Z,0.52
2023-03-13T23:52:05.907Z,0.85
2023-03-13T23:54:33.526Z,0.50
2023-03-13T23:57:02.717Z,0.70
2023-03-13T23:59:30.308Z,0.43
